createdAt,value
2018-08-30T00:02:14.513Z,63.1
2018-08-30T00:12:29.902Z,63.3
2018-08-30T00:17:37.824Z,63.3
2018-08-30T00:22:45.769Z,63.4
2018-08-30T00:27:53.870Z,63.4
2018-08-30T00:33:01.553Z,63.4
2018-08-30T00:38:09.497Z,63.5
2018-08-30T00:43:17.415Z,63.5
2018-08-30T00:48:25.309Z,63.8
2018-08-30T00:53:33.651Z,64
2018-08-30T00:58:41.320Z,63.4
2018-08-30T01:03:49.371Z,63.7
2018-08-30T01:08:57.511Z,63.4
2018-08-30T01:14:05.341Z,63.5
2018-08-30T01:19:13.292Z,63.7
2018-08-30T01:24:21.271Z,64.3
2018-08-30T01:29:29.339Z,64.7
2018-08-30T01:39:45.415Z,65
2018-08-30T01:50:01.462Z,66
2018-08-30T01:55:09.518Z,65.9
2018-08-30T02:00:17.477Z,66.4
2018-08-30T02:05:25.503Z,66.4
2018-08-30T02:10:33.880Z,66.4
2018-08-30T02:20:49.578Z,65.8
2018-08-30T02:25:57.601Z,65.9
2018-08-30T02:31:05.635Z,65.9
2018-08-30T02:36:13.683Z,66.5
2018-08-30T02:41:21.728Z,66.5
2018-08-30T02:51:37.787Z,68
2018-08-30T02:56:45.856Z,68
2018-08-30T03:01:54.020Z,68.3
2018-08-30T03:07:02.098Z,68.2
2018-08-30T03:17:17.926Z,68.3
2018-08-30T03:22:25.925Z,68.3
2018-08-30T03:27:33.924Z,68.1
2018-08-30T03:42:57.899Z,68.3
2018-08-30T03:48:06.341Z,68.2
2018-08-30T03:53:14.088Z,67.8
2018-08-30T03:58:21.907Z,67.4
2018-08-30T04:03:29.907Z,66.9
2018-08-30T04:08:37.884Z,66.7
2018-08-30T04:13:45.865Z,66.8
2018-08-30T04:18:53.851Z,67.1
2018-08-30T04:24:01.790Z,66.9
2018-08-30T04:29:09.768Z,67.3
2018-08-30T04:34:18.688Z,66.3
2018-08-30T04:39:27.049Z,66.8
2018-08-30T04:44:36.390Z,66.3
2018-08-30T04:49:41.846Z,66.7
2018-08-30T04:54:49.478Z,66.5
2018-08-30T04:59:57.319Z,66.7
2018-08-30T05:05:05.235Z,66.2
2018-08-30T05:10:13.127Z,65.6
2018-08-30T05:15:21.232Z,65.9
2018-08-30T05:20:28.960Z,66.4
2018-08-30T05:25:36.879Z,66.2
2018-08-30T05:30:44.776Z,66.4
2018-08-30T05:35:52.710Z,65.8
2018-08-30T05:41:00.434Z,65.5
2018-08-30T05:46:08.254Z,65.7
2018-08-30T05:51:16.593Z,65.1
2018-08-30T05:56:24.100Z,64.9
2018-08-30T06:01:31.927Z,65.1
2018-08-30T06:16:55.478Z,64.9
2018-08-30T06:22:03.248Z,64.5
2018-08-30T06:27:11.065Z,64.6
2018-08-30T06:32:19.013Z,64.8
2018-08-30T06:42:34.578Z,64.7
2018-08-30T06:47:42.443Z,64.6
2018-08-30T06:52:50.360Z,64.1
2018-08-30T06:57:58.008Z,62.9
2018-08-30T07:03:05.797Z,63.2
2018-08-30T07:08:13.557Z,63.7
2018-08-30T07:13:21.264Z,63.9
2018-08-30T07:18:29.157Z,63.8
2018-08-30T07:28:44.687Z,64.1
2018-08-30T07:33:52.493Z,64.4
2018-08-30T07:39:00.390Z,64
2018-08-30T07:44:07.994Z,63.8
2018-08-30T07:49:15.744Z,63.5
2018-08-30T07:59:31.420Z,60.1
2018-08-30T08:04:38.916Z,59.3
2018-08-30T08:09:46.553Z,57.4
2018-08-30T08:14:54.155Z,58.6
2018-08-30T08:20:01.773Z,56.6
2018-08-30T08:25:09.226Z,56.9
2018-08-30T08:30:17.808Z,56.2
2018-08-30T08:35:24.201Z,53.8
2018-08-30T08:40:31.637Z,52.8
2018-08-30T08:45:39.104Z,52.9
2018-08-30T08:50:46.484Z,53.6
2018-08-30T08:55:53.841Z,53.3
2018-08-30T09:01:01.180Z,50.9
2018-08-30T09:06:08.466Z,51
2018-08-30T09:11:15.783Z,49.6
2018-08-30T09:16:22.976Z,49.6
2018-08-30T09:26:37.381Z,47.9
2018-08-30T09:31:44.539Z,45.8
2018-08-30T09:41:58.840Z,47
2018-08-30T09:47:05.992Z,47.6
2018-08-30T09:52:13.328Z,47.4
2018-08-30T09:57:20.343Z,48.3
2018-08-30T10:02:27.519Z,48
2018-08-30T10:07:34.682Z,48.9
2018-08-30T10:12:41.872Z,49
2018-08-30T10:17:49.081Z,46.7
2018-08-30T10:22:56.302Z,46.4
2018-08-30T10:28:03.484Z,46.4
2018-08-30T10:33:10.673Z,43.8
2018-08-30T10:38:19.804Z,43.5
2018-08-30T10:43:25.031Z,43.2
2018-08-30T10:48:32.087Z,45
2018-08-30T10:53:39.161Z,42
2018-08-30T10:58:46.236Z,42.1
2018-08-30T11:03:53.286Z,43
2018-08-30T11:09:00.407Z,41.7
2018-08-30T11:14:07.359Z,41.3
2018-08-30T11:24:21.318Z,40.4
2018-08-30T11:29:28.224Z,39.4
2018-08-30T11:34:35.120Z,39.1
2018-08-30T11:39:42.167Z,40.3
2018-08-30T11:49:55.924Z,40.2
2018-08-30T11:55:02.962Z,40.7
2018-08-30T12:00:10.005Z,41
2018-08-30T12:05:17.061Z,40.7
2018-08-30T12:10:23.939Z,40.6
2018-08-30T12:20:37.928Z,37.3
2018-08-30T12:30:52.085Z,38
2018-08-30T12:35:59.264Z,36.7
2018-08-30T12:41:06.117Z,36.9
2018-08-30T12:51:20.293Z,37.9
2018-08-30T12:56:27.313Z,38
2018-08-30T13:06:41.608Z,37.2
2018-08-30T13:11:48.709Z,36.9
2018-08-30T13:22:03.173Z,37.2
2018-08-30T13:27:10.353Z,37.3
2018-08-30T13:32:17.387Z,37.3
2018-08-30T13:37:24.713Z,38.4
2018-08-30T13:47:39.252Z,38.7
2018-08-30T13:52:46.644Z,38.2
2018-08-30T13:57:54.032Z,39.7
2018-08-30T14:03:01.281Z,40.1
2018-08-30T14:13:16.188Z,40.6
2018-08-30T14:18:23.541Z,40.9
2018-08-30T14:23:30.880Z,41.1
2018-08-30T14:28:38.335Z,40.4
2018-08-30T14:33:45.781Z,39.7
2018-08-30T14:38:53.155Z,39.7
2018-08-30T14:54:15.538Z,40
2018-08-30T14:59:22.842Z,40.2
2018-08-30T15:04:30.286Z,40.5
2018-08-30T15:14:45.095Z,40.3
2018-08-30T15:19:52.492Z,39.8
2018-08-30T15:24:59.933Z,39.7
2018-08-30T15:30:07.612Z,41.2
2018-08-30T15:35:14.785Z,40.9
2018-08-30T15:40:22.229Z,41.1
2018-08-30T15:45:29.717Z,41
2018-08-30T15:50:37.138Z,40.4
2018-08-30T15:55:44.576Z,40.9
2018-08-30T16:05:59.579Z,41.5
2018-08-30T16:16:14.552Z,41.2
2018-08-30T16:21:22.013Z,42
2018-08-30T16:31:37.012Z,41.7
2018-08-30T16:36:44.584Z,43.1
2018-08-30T16:41:51.961Z,43.2
2018-08-30T16:46:59.533Z,43.5
2018-08-30T16:52:06.937Z,44.4
2018-08-30T16:57:14.489Z,44.5
2018-08-30T17:02:21.823Z,43.9
2018-08-30T17:07:29.479Z,43.7
2018-08-30T17:12:36.879Z,43.6
2018-08-30T17:17:44.466Z,44.1
2018-08-30T17:22:51.827Z,43.9
2018-08-30T17:27:59.392Z,44
2018-08-30T17:33:06.796Z,44.3
2018-08-30T17:38:17.547Z,44.2
2018-08-30T17:43:21.794Z,44.1
2018-08-30T17:48:29.276Z,44.4
2018-08-30T17:53:36.996Z,44.7
2018-08-30T17:58:44.268Z,44.6
2018-08-30T18:03:51.861Z,44.6
2018-08-30T18:08:59.461Z,44.9
2018-08-30T18:14:06.905Z,44.9
2018-08-30T18:19:14.363Z,45.2
2018-08-30T18:24:21.993Z,45.1
2018-08-30T18:29:29.460Z,45.1
2018-08-30T18:34:37.053Z,44.9
2018-08-30T18:39:44.725Z,45.5
2018-08-30T18:44:52.614Z,45.1
2018-08-30T18:49:59.817Z,45.2
2018-08-30T18:55:07.871Z,45
2018-08-30T19:00:15.282Z,44.8
2018-08-30T19:05:22.749Z,44.9
2018-08-30T19:10:30.383Z,44.8
2018-08-30T19:15:37.950Z,45.1
2018-08-30T19:20:45.697Z,45.3
2018-08-30T19:25:53.414Z,45.5
2018-08-30T19:31:00.908Z,45.6
2018-08-30T19:36:08.547Z,46.1
2018-08-30T19:41:16.310Z,46.5
2018-08-30T19:46:23.914Z,46.7
2018-08-30T19:56:39.368Z,46.8
2018-08-30T20:01:47.044Z,47
2018-08-30T20:06:54.747Z,47.3
2018-08-30T20:12:02.498Z,47.3
2018-08-30T20:17:10.234Z,47.4
2018-08-30T20:22:17.994Z,47.4
2018-08-30T20:27:25.674Z,47.8
2018-08-30T20:32:33.365Z,47.5
2018-08-30T20:37:41.060Z,47.3
2018-08-30T20:42:48.815Z,47.4
2018-08-30T20:53:04.306Z,47.9
2018-08-30T20:58:12.027Z,47.9
2018-08-30T21:03:19.791Z,47.5
2018-08-30T21:08:27.570Z,48.6
2018-08-30T21:13:35.322Z,48.8
2018-08-30T21:18:43.101Z,48.8
2018-08-30T21:23:50.880Z,49.1
2018-08-30T21:28:58.659Z,49.1
2018-08-30T21:39:14.337Z,49.8
2018-08-30T21:44:22.019Z,49
2018-08-30T21:49:29.814Z,49.7
2018-08-30T21:54:37.674Z,49
2018-08-30T21:59:46.040Z,49.4
2018-08-30T22:04:53.282Z,49.4
2018-08-30T22:10:01.105Z,49.6
2018-08-30T22:15:09.050Z,49.8
2018-08-30T22:20:16.802Z,49.5
2018-08-30T22:25:24.615Z,49.3
2018-08-30T22:30:32.445Z,49.5
2018-08-30T22:35:40.388Z,49.2
2018-08-30T22:40:48.138Z,49.1
2018-08-30T22:45:55.970Z,49.4
2018-08-30T22:51:03.769Z,49.1
2018-08-30T22:56:11.823Z,49.9
2018-08-30T23:06:27.451Z,49.9
2018-08-30T23:11:35.194Z,50.3
2018-08-30T23:21:50.966Z,50.6
2018-08-30T23:26:58.857Z,50.5
2018-08-30T23:32:06.781Z,49.9
2018-08-30T23:37:14.669Z,50.1
2018-08-30T23:42:22.584Z,49.9
2018-08-30T23:47:30.618Z,50
2018-08-30T23:52:38.413Z,49.9
2018-08-30T23:57:46.419Z,50.1
